Welkom op de weersite van Veghel e.o.

Hopend op weer een interessant weer jaar.


Webcam Veghel  Webcam Veghel


Onweer radar Meer informatie blitzortung!


Regen radar Meer informatie rain snow radar


U vindt ons ook hier:

Het Weer Aktueel

European Weather Network

Weather Underground

Benelux Weer Netwerk

AWEKAS


Het weer levert geen direct gevaar op.    Er zijn geen waarschuwingen afgegeven.

METAR rapporten vliegvelden

   
EHAM - Amsterdam
Gewijzigd: 19-01-2021 00:25
Lichte (mot)regen, Grotendeels bewolkt  
Lichte (mot)regen, Grotendeels bewolkt  
   Wind: ZZW 25.9 km/h
Wind: ZZW 25.9 km/h
Temperatuur: 6°C
Voelt als: 2°C
Dauwpunt: 5°C
Vochtigheid: 93%
Barometer: 1014 hPa
Bewolking: Mostly Cloudy
Zicht: 9 km
Bewolking: Gedeeltelijk bewolkt 700 ft,
Grotendeels bewolkt 900 ft
EHAM 182325Z 21014KT 9000 -DZ SCT007 BKN009 06/05 Q1014 TEMPO 7000 BECMG BKN015
EHEH - Eindhoven
Gewijzigd: 19-01-2021 00:27
Bewolking  
Bewolking  
   Wind: ZZW 24.1 km/h
Wind: ZZW 24.1 km/h
Temperatuur: 5°C
Voelt als: 1°C
Dauwpunt: 4°C
Vochtigheid: 93%
Barometer: 1017 hPa
Bewolking: Overcast
Zicht: meer dan 10 km
Bewolking: Licht bewolkt 2300 ft,
Bewolking 2700 ft
EHEH 182327Z AUTO 21013KT 9999 FEW023 OVC027 05/04 Q1017 BLU
EHGR - Gilze/Rijen
Gewijzigd: 19-01-2021 00:25
Bewolking  
Bewolking  
   Wind: ZZW 18.5 km/h
Wind: ZZW 18.5 km/h
Temperatuur: 6°C
Voelt als: 3°C
Dauwpunt: 3°C
Vochtigheid: 81%
Barometer: 1016 hPa
Bewolking: Overcast
Zicht: meer dan 10 km
Bewolking: Grotendeels bewolkt 4000 ft,
Bewolking 4400 ft
EHGR 182325Z AUTO 21010KT 160V260 9999 BKN040 OVC044 06/03 Q1016 BLU
EHBK - Maastricht
Gewijzigd: 19-01-2021 00:25
Bewolking  
Bewolking  
   Wind: ZW 25.9 km/h
Wind: ZW 25.9 km/h
Temperatuur: 5°C
Voelt als: 1°C
Dauwpunt: 2°C
Vochtigheid: 81%
Barometer: 1018 hPa
Bewolking: Overcast
Zicht: meer dan 10 km
Bewolking: Licht bewolkt 1700 ft,
Bewolking 3900 ft
EHBK 182325Z AUTO 22014KT 180V240 9999 FEW017 OVC039 05/02 Q1018
EHVK - Volkel
Gewijzigd: 19-01-2021 00:25
Bewolking  
Bewolking  
   Wind: ZZW 25.9 km/h
Wind: ZZW 25.9 km/h
Temperatuur: 6°C
Voelt als: 2°C
Dauwpunt: 4°C
Vochtigheid: 87%
Barometer: 1016 hPa
Bewolking: Overcast
Zicht: meer dan 10 km
Bewolking: Grotendeels bewolkt 1200 ft,
Bewolking 1400 ft
EHVK 182325Z AUTO 21014KT 190V250 9999 BKN012 OVC014 06/04 Q1016 GRN
EHFS - Vlissingen
Gewijzigd: 19-01-2021 00:25
Bewolking  
Bewolking  
   Wind: ZZW 35.2 km/h
Wind: ZZW 35.2 km/h
Temperatuur: 6°C
Voelt als: 1°C
Dauwpunt: 3°C
Vochtigheid: 81%
Barometer: 1015 hPa
Bewolking: Overcast
Zicht: meer dan 10 km
Bewolking: Licht bewolkt 3600 ft,
Bewolking 4400 ft
EHFS 182325Z AUTO 20019KT 9999 FEW036/// OVC044/// 06/03 Q1015

Script ontwikkeld door  Saratoga-weather.org Aangepast voor de template door  Weerstation Leuven

Apparatuur in gebruik:

Weerstation
Davis VP2

Weerprogramma
WeatherLink

Weercomputer
Sponsor

Webleverancier
My provider

Davis VP2

WeatherLink

Sponsor

My provider